createdAt,value
2023-03-13T00:01:21.509Z,9.20
2023-03-13T00:03:49.564Z,8.63
2023-03-13T00:06:16.514Z,8.40
2023-03-13T00:08:43.424Z,8.45
2023-03-13T00:11:10.360Z,8.68
2023-03-13T00:13:37.272Z,7.97
2023-03-13T00:16:04.222Z,8.98
2023-03-13T00:18:31.165Z,8.40
2023-03-13T00:20:58.118Z,8.70
2023-03-13T00:23:25.164Z,8.25
2023-03-13T00:25:52.503Z,8.43
2023-03-13T00:28:19.416Z,7.35
2023-03-13T00:30:46.490Z,7.63
2023-03-13T00:33:13.442Z,7.90
2023-03-13T00:35:40.730Z,7.75
2023-03-13T00:38:12.373Z,7.35
2023-03-13T00:40:39.508Z,7.32
2023-03-13T00:43:06.448Z,7.53
2023-03-13T00:45:33.402Z,7.65
2023-03-13T00:48:04.631Z,6.85
2023-03-13T00:52:58.673Z,7.07
2023-03-13T00:55:28.138Z,7.10
2023-03-13T00:57:55.113Z,7.85
2023-03-13T01:00:22.133Z,6.45
2023-03-13T01:02:49.217Z,6.72
2023-03-13T01:05:16.228Z,6.88
2023-03-13T01:07:43.376Z,6.53
2023-03-13T01:10:10.321Z,6.70
2023-03-13T01:12:37.437Z,6.78
2023-03-13T01:15:04.464Z,6.35
2023-03-13T01:17:31.796Z,6.28
2023-03-13T01:19:58.719Z,6.85
2023-03-13T01:22:25.629Z,6.78
2023-03-13T01:24:52.536Z,7.30
2023-03-13T01:27:19.687Z,6.55
2023-03-13T01:29:47.454Z,6.45
2023-03-13T01:32:14.474Z,6.00
2023-03-13T01:34:46.316Z,6.82
2023-03-13T01:37:13.257Z,6.00
2023-03-13T01:39:40.142Z,6.70
2023-03-13T01:42:07.064Z,6.45
2023-03-13T01:44:33.988Z,6.82
2023-03-13T01:47:00.951Z,6.65
2023-03-13T01:49:27.850Z,5.95
2023-03-13T01:51:54.784Z,5.55
2023-03-13T01:54:21.678Z,6.90
2023-03-13T01:56:48.603Z,5.85
2023-03-13T01:59:15.546Z,6.00
2023-03-13T02:01:42.808Z,5.60
2023-03-13T02:04:09.738Z,5.93
2023-03-13T02:06:36.648Z,6.47
2023-03-13T02:09:03.546Z,6.68
2023-03-13T02:11:30.493Z,5.35
2023-03-13T02:13:57.423Z,6.50
2023-03-13T02:16:24.426Z,6.50
2023-03-13T02:18:51.419Z,5.47
2023-03-13T02:21:18.356Z,6.90
2023-03-13T02:23:45.262Z,6.85
2023-03-13T02:26:12.165Z,6.22
2023-03-13T02:28:39.103Z,7.07
2023-03-13T02:31:06.090Z,6.43
2023-03-13T02:33:33.005Z,7.50
2023-03-13T02:36:00.001Z,6.82
2023-03-13T02:38:26.928Z,6.75
2023-03-13T02:40:54.022Z,6.72
2023-03-13T02:43:20.932Z,7.03
2023-03-13T02:45:47.837Z,6.50
2023-03-13T02:48:14.766Z,6.85
2023-03-13T02:50:41.665Z,6.35
2023-03-13T02:53:08.592Z,6.30
2023-03-13T02:55:35.535Z,6.50
2023-03-13T02:58:02.475Z,6.90
2023-03-13T03:00:29.401Z,6.82
2023-03-13T03:02:56.347Z,7.00
2023-03-13T03:05:23.263Z,6.07
2023-03-13T03:07:50.193Z,6.38
2023-03-13T03:10:17.092Z,7.22
2023-03-13T03:12:43.994Z,6.43
2023-03-13T03:15:13.126Z,7.13
2023-03-13T03:17:40.023Z,6.22
2023-03-13T03:20:06.948Z,7.72
2023-03-13T03:22:33.882Z,6.10
2023-03-13T03:25:00.787Z,5.85
2023-03-13T03:27:27.686Z,6.55
2023-03-13T03:29:54.588Z,5.97
2023-03-13T03:32:21.544Z,7.00
2023-03-13T03:34:48.495Z,6.28
2023-03-13T03:37:15.417Z,6.25
2023-03-13T03:39:42.312Z,6.72
2023-03-13T03:42:09.244Z,5.78
2023-03-13T03:44:36.162Z,6.15
2023-03-13T03:47:03.144Z,6.25
2023-03-13T03:49:30.111Z,5.88
2023-03-13T03:51:57.036Z,5.97
2023-03-13T03:54:23.961Z,7.28
2023-03-13T03:56:53.230Z,6.40
2023-03-13T03:59:20.214Z,6.20
2023-03-13T04:01:49.553Z,6.22
2023-03-13T04:04:16.498Z,6.22
2023-03-13T04:06:43.430Z,5.75
2023-03-13T04:09:10.349Z,6.05
2023-03-13T04:11:37.308Z,6.35
2023-03-13T04:14:04.207Z,6.55
2023-03-13T04:16:31.215Z,6.22
2023-03-13T04:18:58.146Z,7.13
2023-03-13T04:21:25.606Z,5.68
2023-03-13T04:23:52.627Z,6.80
2023-03-13T04:26:19.833Z,5.65
2023-03-13T04:28:46.988Z,6.15
2023-03-13T04:31:15.831Z,6.28
2023-03-13T04:33:42.986Z,4.93
2023-03-13T04:36:10.157Z,5.93
2023-03-13T04:38:37.279Z,5.72
2023-03-13T04:41:04.422Z,5.93
2023-03-13T04:43:31.615Z,5.40
2023-03-13T04:45:58.728Z,5.63
2023-03-13T04:48:25.949Z,4.95
2023-03-13T04:50:58.894Z,5.70
2023-03-13T04:53:26.037Z,6.20
2023-03-13T04:55:53.093Z,5.57
2023-03-13T04:58:23.195Z,5.53
2023-03-13T05:00:50.206Z,5.18
2023-03-13T05:03:18.574Z,5.68
2023-03-13T05:05:45.552Z,5.32
2023-03-13T05:08:12.458Z,5.78
2023-03-13T05:10:39.377Z,5.63
2023-03-13T05:13:06.302Z,5.80
2023-03-13T05:15:33.227Z,4.75
2023-03-13T05:18:00.150Z,5.18
2023-03-13T05:20:27.160Z,4.90
2023-03-13T05:22:54.319Z,5.00
2023-03-13T05:25:21.568Z,4.95
2023-03-13T05:27:48.575Z,5.68
2023-03-13T05:30:15.518Z,4.38
2023-03-13T05:32:42.515Z,4.85
2023-03-13T05:35:09.451Z,4.90
2023-03-13T05:37:36.415Z,5.63
2023-03-13T05:40:03.516Z,4.50
2023-03-13T05:42:30.431Z,5.20
2023-03-13T05:44:57.347Z,4.75
2023-03-13T05:47:24.265Z,5.10
2023-03-13T05:49:51.177Z,4.60
2023-03-13T05:52:18.091Z,4.95
2023-03-13T05:54:45.140Z,4.60
2023-03-13T05:57:12.046Z,4.90
2023-03-13T05:59:38.944Z,4.35
2023-03-13T06:02:05.843Z,4.82
2023-03-13T06:04:32.899Z,4.38
2023-03-13T06:06:59.986Z,4.07
2023-03-13T06:09:26.907Z,4.38
2023-03-13T06:11:53.812Z,3.75
2023-03-13T06:14:20.758Z,4.07
2023-03-13T06:16:47.662Z,4.18
2023-03-13T06:19:14.638Z,4.20
2023-03-13T06:21:41.556Z,4.30
2023-03-13T06:24:08.518Z,4.50
2023-03-13T06:26:35.428Z,3.75
2023-03-13T06:29:02.353Z,3.90
2023-03-13T06:31:29.317Z,3.67
2023-03-13T06:33:56.295Z,3.63
2023-03-13T06:36:23.229Z,3.08
2023-03-13T06:38:50.215Z,3.20
2023-03-13T06:41:18.364Z,2.75
2023-03-13T06:43:45.351Z,2.72
2023-03-13T06:46:12.282Z,3.10
2023-03-13T06:48:39.217Z,2.97
2023-03-13T06:51:06.121Z,3.13
2023-03-13T06:53:33.078Z,2.67
2023-03-13T06:55:59.996Z,2.40
2023-03-13T06:58:32.498Z,2.50
2023-03-13T07:00:59.891Z,2.97
2023-03-13T07:03:27.011Z,2.60
2023-03-13T07:05:53.945Z,2.55
2023-03-13T07:08:20.857Z,3.05
2023-03-13T07:10:47.772Z,2.70
2023-03-13T07:13:14.681Z,2.60
2023-03-13T07:15:41.600Z,2.70
2023-03-13T07:18:21.718Z,2.50
2023-03-13T07:20:48.681Z,2.33
2023-03-13T07:23:15.609Z,2.05
2023-03-13T07:25:42.548Z,2.28
2023-03-13T07:28:10.550Z,2.50
2023-03-13T07:30:37.479Z,2.50
2023-03-13T07:33:04.495Z,2.22
2023-03-13T07:35:31.467Z,2.22
2023-03-13T07:37:58.634Z,2.10
2023-03-13T07:40:25.609Z,2.30
2023-03-13T07:42:52.516Z,2.20
2023-03-13T07:45:19.411Z,3.10
2023-03-13T07:47:46.327Z,2.45
2023-03-13T07:50:13.322Z,2.58
2023-03-13T07:52:40.271Z,2.67
2023-03-13T07:55:07.217Z,2.20
2023-03-13T07:57:34.147Z,2.03
2023-03-13T08:00:01.079Z,2.00
2023-03-13T08:02:28.086Z,2.05
2023-03-13T08:04:56.704Z,2.20
2023-03-13T08:07:24.789Z,2.00
2023-03-13T08:09:51.740Z,2.15
2023-03-13T08:12:18.728Z,2.20
2023-03-13T08:14:45.661Z,2.10
2023-03-13T08:17:12.609Z,2.10
2023-03-13T08:19:39.642Z,2.00
2023-03-13T08:22:06.560Z,1.80
2023-03-13T08:24:33.466Z,1.75
2023-03-13T08:27:00.408Z,1.80
2023-03-13T08:29:27.348Z,1.80
2023-03-13T08:31:54.263Z,1.90
2023-03-13T08:34:21.194Z,1.75
2023-03-13T08:36:48.209Z,1.70
2023-03-13T08:39:15.136Z,1.90
2023-03-13T08:41:42.032Z,1.80
2023-03-13T08:44:08.977Z,1.70
2023-03-13T08:46:35.941Z,2.00
2023-03-13T08:49:02.913Z,1.95
2023-03-13T08:51:29.822Z,1.98
2023-03-13T08:53:56.763Z,1.63
2023-03-13T08:56:23.686Z,2.03
2023-03-13T08:58:50.628Z,1.70
2023-03-13T09:01:17.541Z,1.98
2023-03-13T09:03:44.559Z,1.80
2023-03-13T09:06:11.492Z,1.73
2023-03-13T09:08:38.436Z,2.13
2023-03-13T09:11:05.347Z,2.40
2023-03-13T09:13:32.284Z,2.03
2023-03-13T09:15:59.233Z,2.13
2023-03-13T09:18:26.234Z,1.90
2023-03-13T09:20:53.177Z,2.35
2023-03-13T09:23:20.092Z,1.88
2023-03-13T09:25:47.049Z,2.15
2023-03-13T09:28:14.045Z,2.20
2023-03-13T09:30:40.983Z,2.20
2023-03-13T09:33:07.890Z,1.95
2023-03-13T09:35:34.896Z,2.25
2023-03-13T09:38:01.899Z,2.50
2023-03-13T09:40:28.805Z,2.40
2023-03-13T09:42:55.703Z,2.50
2023-03-13T09:45:22.633Z,2.90
2023-03-13T09:47:49.553Z,3.10
2023-03-13T09:50:16.469Z,3.13
2023-03-13T09:52:43.386Z,3.10
2023-03-13T09:55:10.660Z,3.40
2023-03-13T09:57:37.585Z,3.25
2023-03-13T10:00:04.541Z,3.35
2023-03-13T10:02:31.460Z,3.03
2023-03-13T10:04:58.449Z,3.53
2023-03-13T10:07:25.346Z,3.08
2023-03-13T10:09:52.260Z,3.00
2023-03-13T10:12:19.178Z,3.03
2023-03-13T10:14:46.131Z,2.85
2023-03-13T10:17:13.048Z,3.05
2023-03-13T10:19:40.021Z,2.85
2023-03-13T10:22:06.936Z,2.60
2023-03-13T10:24:33.876Z,3.00
2023-03-13T10:27:00.782Z,2.80
2023-03-13T10:29:27.818Z,2.72
2023-03-13T10:31:54.810Z,2.90
2023-03-13T10:34:21.744Z,3.13
2023-03-13T10:36:48.649Z,3.17
2023-03-13T10:39:15.553Z,2.78
2023-03-13T10:41:42.478Z,2.90
2023-03-13T10:44:09.425Z,3.38
2023-03-13T10:46:36.387Z,3.00
2023-03-13T10:49:03.360Z,3.05
2023-03-13T10:51:30.287Z,5.25
2023-03-13T10:53:57.213Z,2.92
2023-03-13T10:56:24.182Z,2.70
2023-03-13T10:58:51.147Z,2.67
2023-03-13T11:01:18.065Z,2.83
2023-03-13T11:03:45.030Z,3.10
2023-03-13T11:06:12.083Z,2.50
2023-03-13T11:08:39.039Z,2.47
2023-03-13T11:11:06.023Z,2.35
2023-03-13T11:13:36.931Z,2.40
2023-03-13T11:16:04.708Z,2.33
2023-03-13T11:18:31.635Z,2.35
2023-03-13T11:21:08.726Z,2.15
2023-03-13T11:23:42.905Z,2.20
2023-03-13T11:26:09.902Z,2.05
2023-03-13T11:28:36.798Z,1.88
2023-03-13T11:31:03.781Z,2.10
2023-03-13T11:33:30.711Z,2.33
2023-03-13T11:35:58.808Z,1.90
2023-03-13T11:38:25.818Z,2.13
2023-03-13T11:40:52.738Z,2.00
2023-03-13T11:43:25.332Z,2.17
2023-03-13T11:45:53.321Z,2.47
2023-03-13T11:48:27.199Z,2.15
2023-03-13T11:50:54.186Z,2.30
2023-03-13T11:53:22.848Z,1.95
2023-03-13T11:55:52.514Z,2.40
2023-03-13T11:58:21.522Z,1.92
2023-03-13T12:00:49.475Z,1.92
2023-03-13T12:03:16.660Z,2.30
2023-03-13T12:05:43.746Z,2.22
2023-03-13T12:08:10.690Z,2.30
2023-03-13T12:10:37.680Z,2.10
2023-03-13T12:13:04.641Z,2.10
2023-03-13T12:15:33.608Z,2.28
2023-03-13T12:18:00.565Z,2.15
2023-03-13T12:20:27.563Z,2.40
2023-03-13T12:22:54.529Z,2.22
2023-03-13T12:25:21.575Z,2.00
2023-03-13T12:27:48.548Z,1.77
2023-03-13T12:30:15.590Z,1.98
2023-03-13T12:32:42.586Z,1.83
2023-03-13T12:35:09.520Z,1.90
2023-03-13T12:37:36.492Z,1.95
2023-03-13T12:40:03.542Z,2.15
2023-03-13T12:42:30.473Z,2.08
2023-03-13T12:44:57.609Z,2.05
2023-03-13T12:47:26.993Z,2.30
2023-03-13T12:49:57.755Z,2.00
2023-03-13T12:52:24.704Z,2.25
2023-03-13T12:54:51.757Z,2.03
2023-03-13T12:57:18.752Z,2.10
2023-03-13T12:59:45.745Z,1.90
2023-03-13T13:02:12.741Z,1.95
2023-03-13T13:04:39.734Z,1.63
2023-03-13T13:07:06.706Z,1.90
2023-03-13T13:09:33.653Z,1.90
2023-03-13T13:12:01.501Z,1.77
2023-03-13T13:14:28.480Z,2.30
2023-03-13T13:16:55.497Z,1.88
2023-03-13T13:19:25.288Z,2.00
2023-03-13T13:21:52.383Z,2.00
2023-03-13T13:24:19.312Z,2.08
2023-03-13T13:26:46.278Z,1.80
2023-03-13T13:29:13.443Z,1.92
2023-03-13T13:31:40.443Z,2.22
2023-03-13T13:34:07.925Z,2.10
2023-03-13T13:36:34.888Z,1.90
2023-03-13T13:39:01.866Z,1.90
2023-03-13T13:41:29.970Z,1.75
2023-03-13T13:43:57.371Z,2.15
2023-03-13T13:46:25.939Z,2.13
2023-03-13T13:48:56.350Z,2.20
2023-03-13T13:51:23.788Z,2.35
2023-03-13T13:53:50.834Z,2.25
2023-03-13T13:56:24.089Z,2.10
2023-03-13T13:58:51.117Z,1.80
2023-03-13T14:01:18.089Z,2.03
2023-03-13T14:03:45.066Z,1.90
2023-03-13T14:06:12.126Z,2.03
2023-03-13T14:08:39.085Z,1.83
2023-03-13T14:11:06.033Z,1.90
2023-03-13T14:13:33.028Z,2.08
2023-03-13T14:15:59.937Z,1.73
2023-03-13T14:18:26.856Z,1.80
2023-03-13T14:20:53.887Z,1.92
2023-03-13T14:23:20.779Z,1.70
2023-03-13T14:25:53.729Z,2.67
2023-03-13T14:28:22.850Z,2.35
2023-03-13T14:30:54.323Z,2.05
2023-03-13T14:33:21.380Z,2.08
2023-03-13T14:35:48.766Z,1.80
2023-03-13T14:38:19.393Z,1.90
2023-03-13T14:43:41.942Z,2.50
2023-03-13T14:46:09.368Z,1.80
2023-03-13T14:48:36.743Z,2.10
2023-03-13T14:51:14.760Z,1.75
2023-03-13T14:53:43.350Z,1.95
2023-03-13T14:56:10.325Z,2.13
2023-03-13T14:58:37.244Z,2.03
2023-03-13T15:01:04.229Z,1.80
2023-03-13T15:03:31.174Z,2.17
2023-03-13T15:05:58.148Z,1.70
2023-03-13T15:08:25.091Z,1.90
2023-03-13T15:10:52.001Z,1.90
2023-03-13T15:16:03.630Z,1.75
2023-03-13T15:18:30.548Z,2.08
2023-03-13T15:20:57.508Z,2.03
2023-03-13T15:23:24.612Z,1.80
2023-03-13T15:25:51.601Z,1.85
2023-03-13T15:28:18.553Z,1.65
2023-03-13T15:30:45.518Z,1.90
2023-03-13T15:33:12.605Z,1.88
2023-03-13T15:35:39.665Z,2.22
2023-03-13T15:38:06.721Z,1.70
2023-03-13T15:40:33.711Z,2.10
2023-03-13T15:43:01.060Z,1.63
2023-03-13T15:45:27.970Z,1.80
2023-03-13T15:47:55.039Z,1.90
2023-03-13T15:50:21.965Z,1.80
2023-03-13T15:52:48.935Z,2.03
2023-03-13T15:55:15.901Z,1.70
2023-03-13T15:57:55.385Z,1.90
2023-03-13T16:00:22.301Z,2.08
2023-03-13T16:02:49.333Z,2.00
2023-03-13T16:05:16.280Z,1.77
2023-03-13T16:07:43.213Z,1.85
2023-03-13T16:10:10.163Z,1.85
2023-03-13T16:12:37.111Z,1.77
2023-03-13T16:15:04.042Z,1.90
2023-03-13T16:17:31.097Z,1.73
2023-03-13T16:19:58.003Z,1.80
2023-03-13T16:22:24.987Z,1.90
2023-03-13T16:24:51.913Z,1.85
2023-03-13T16:27:18.849Z,1.95
2023-03-13T16:29:45.785Z,1.77
2023-03-13T16:32:12.764Z,1.98
2023-03-13T16:34:39.737Z,1.88
2023-03-13T16:37:06.681Z,1.70
2023-03-13T16:39:33.584Z,1.80
2023-03-13T16:42:00.507Z,2.00
2023-03-13T16:44:27.514Z,1.52
2023-03-13T16:47:05.661Z,1.80
2023-03-13T16:49:33.245Z,1.90
2023-03-13T16:52:00.205Z,1.95
2023-03-13T16:54:27.130Z,1.80
2023-03-13T16:56:54.099Z,1.80
2023-03-13T16:59:21.025Z,1.90
2023-03-13T17:01:48.065Z,1.88
2023-03-13T17:04:15.075Z,1.67
2023-03-13T17:06:42.077Z,1.70
2023-03-13T17:09:09.006Z,2.00
2023-03-13T17:11:35.971Z,2.00
2023-03-13T17:14:02.886Z,1.90
2023-03-13T17:16:29.807Z,2.10
2023-03-13T17:18:56.701Z,2.10
2023-03-13T17:21:23.676Z,2.00
2023-03-13T17:23:50.615Z,1.70
2023-03-13T17:26:24.166Z,1.80
2023-03-13T17:28:52.246Z,1.85
2023-03-13T17:31:19.225Z,1.98
2023-03-13T17:33:46.186Z,1.75
2023-03-13T17:36:13.151Z,2.70
2023-03-13T17:38:40.148Z,2.30
2023-03-13T17:41:09.647Z,2.20
2023-03-13T17:43:36.552Z,2.10
2023-03-13T17:46:04.747Z,1.90
2023-03-13T17:48:31.697Z,1.88
2023-03-13T17:51:11.907Z,1.77
2023-03-13T17:53:38.911Z,2.03
2023-03-13T17:56:05.841Z,2.00
2023-03-13T17:58:32.797Z,1.90
2023-03-13T18:00:59.727Z,1.80
2023-03-13T18:03:26.699Z,2.03
2023-03-13T18:05:53.601Z,2.17
2023-03-13T18:08:20.547Z,1.90
2023-03-13T18:10:47.481Z,1.98
2023-03-13T18:13:14.399Z,2.13
2023-03-13T18:15:41.306Z,1.85
2023-03-13T18:18:08.258Z,2.10
2023-03-13T18:20:35.207Z,2.42
2023-03-13T18:23:02.142Z,2.00
2023-03-13T18:25:32.268Z,2.25
2023-03-13T18:27:59.288Z,2.10
2023-03-13T18:30:26.224Z,2.60
2023-03-13T18:32:53.222Z,2.10
2023-03-13T18:35:20.159Z,2.15
2023-03-13T18:37:47.126Z,2.38
2023-03-13T18:40:14.037Z,2.40
2023-03-13T18:42:41.019Z,2.03
2023-03-13T18:45:07.972Z,2.55
2023-03-13T18:47:34.922Z,2.47
2023-03-13T18:50:01.866Z,2.42
2023-03-13T18:52:28.829Z,2.58
2023-03-13T18:54:55.767Z,2.40
2023-03-13T18:57:22.692Z,2.30
2023-03-13T18:59:49.742Z,2.42
2023-03-13T19:02:16.721Z,3.45
2023-03-13T19:04:43.648Z,2.90
2023-03-13T19:07:10.572Z,3.25
2023-03-13T19:09:43.572Z,2.63
2023-03-13T19:12:10.948Z,3.17
2023-03-13T19:14:37.927Z,3.72
2023-03-13T19:17:04.884Z,3.28
2023-03-13T19:19:31.809Z,2.88
2023-03-13T19:21:58.916Z,3.47
2023-03-13T19:24:25.880Z,3.50
2023-03-13T19:26:54.658Z,2.95
2023-03-13T19:29:21.789Z,3.08
2023-03-13T19:31:48.790Z,3.40
2023-03-13T19:34:15.766Z,2.83
2023-03-13T19:36:42.719Z,2.80
2023-03-13T19:39:09.655Z,3.55
2023-03-13T19:41:36.598Z,3.15
2023-03-13T19:44:03.645Z,3.30
2023-03-13T19:46:30.628Z,3.47
2023-03-13T19:48:57.567Z,3.63
2023-03-13T19:51:24.505Z,3.28
2023-03-13T19:53:51.463Z,3.20
2023-03-13T19:56:18.397Z,3.10
2023-03-13T19:58:46.777Z,3.28
2023-03-13T20:01:17.583Z,3.13
2023-03-13T20:03:45.055Z,3.20
2023-03-13T20:06:12.014Z,3.22
2023-03-13T20:08:38.953Z,3.13
2023-03-13T20:11:05.871Z,3.58
2023-03-13T20:13:32.806Z,3.75
2023-03-13T20:16:13.562Z,3.63
2023-03-13T20:18:40.631Z,3.30
2023-03-13T20:21:07.564Z,3.65
2023-03-13T20:23:34.532Z,3.78
2023-03-13T20:26:01.482Z,3.70
2023-03-13T20:28:28.536Z,3.90
2023-03-13T20:30:55.541Z,3.83
2023-03-13T20:33:25.392Z,3.67
2023-03-13T20:35:52.437Z,3.47
2023-03-13T20:38:37.337Z,3.33
2023-03-13T20:41:07.467Z,3.53
2023-03-13T20:43:36.512Z,3.03
2023-03-13T20:46:08.875Z,3.55
2023-03-13T20:48:41.942Z,3.50
2023-03-13T20:53:58.024Z,3.55
2023-03-13T20:56:27.736Z,3.30
2023-03-13T20:58:59.187Z,3.65
2023-03-13T21:01:34.851Z,3.60
2023-03-13T21:07:09.284Z,4.25
2023-03-13T21:09:36.312Z,3.90
2023-03-13T21:12:12.757Z,4.25
2023-03-13T21:17:23.356Z,3.47
2023-03-13T21:19:51.670Z,3.30
2023-03-13T21:22:18.655Z,3.75
2023-03-13T21:24:45.603Z,3.42
2023-03-13T21:27:12.570Z,3.05
2023-03-13T21:29:39.519Z,2.90
2023-03-13T21:32:06.501Z,2.95
2023-03-13T21:34:33.458Z,3.33
2023-03-13T21:37:00.420Z,3.40
2023-03-13T21:39:27.405Z,3.25
2023-03-13T21:41:54.308Z,3.00
2023-03-13T21:44:21.220Z,3.22
2023-03-13T21:46:48.157Z,2.72
2023-03-13T21:49:15.119Z,2.85
2023-03-13T21:51:42.034Z,2.90
2023-03-13T21:54:08.967Z,3.20
2023-03-13T21:56:35.861Z,2.85
2023-03-13T21:59:04.545Z,3.10
2023-03-13T22:01:31.520Z,2.90
2023-03-13T22:03:58.533Z,3.00
2023-03-13T22:06:25.481Z,2.65
2023-03-13T22:11:37.350Z,2.75
2023-03-13T22:14:04.592Z,2.42
